Time;durP1;ratioP1;P1;durP2;ratioP2;P2;SDS_P1;SDS_P2;PMS_P1;PMS_P2;Temp;Humidity;BMP_temperature;BMP_pressure;BME280_temperature;BME280_humidity;BME280_pressure;Samples;Min_cycle;Max_cycle;Signal;HPM_P1;HPM_P2
2023/10/02 00:01:24;;;;;;;0.20;0.20;;;;;;;20.52;41.79;101692.91;4990577;28;20397;-82
2023/10/02 00:03:41;;;;;;;0.10;0.10;;;;;;;20.47;41.93;101690.03;4981925;28;20452;-80
2023/10/02 00:06:14;;;;;;;0.25;0.25;;;;;;;20.41;41.85;101697.09;4989365;28;20971;-80
2023/10/02 00:08:42;;;;;;;0.20;0.20;;;;;;;20.45;41.66;101694.78;5005442;28;20931;-82
2023/10/02 00:11:35;;;;;;;0.30;0.30;;;;;;;20.37;41.79;101695.84;4990640;28;20400;-76
2023/10/02 00:14:18;;;;;;;0.95;0.45;;;;;;;20.39;41.74;101691.09;4990359;28;20991;-77
2023/10/02 00:17:03;;;;;;;0.20;0.20;;;;;;;20.40;41.67;101700.84;4990433;28;20386;-76
2023/10/02 00:19:40;;;;;;;0.20;0.20;;;;;;;20.43;41.60;101695.00;4990505;28;20427;-77
2023/10/02 00:22:35;;;;;;;0.30;0.30;;;;;;;20.36;41.60;101698.75;4990654;28;20888;-75
2023/10/02 00:25:19;;;;;;;0.20;0.20;;;;;;;20.31;41.62;101695.88;5002623;28;20408;-80
2023/10/02 00:28:10;;;;;;;0.20;0.20;;;;;;;20.29;41.47;101697.94;4990104;28;20390;-78
2023/10/02 00:30:37;;;;;;;0.35;0.35;;;;;;;20.14;41.67;101690.94;4988819;28;20480;-76
2023/10/02 00:33:04;;;;;;;0.20;0.20;;;;;;;20.13;41.88;101696.53;5004483;28;21198;-78
2023/10/02 00:35:32;;;;;;;0.20;0.20;;;;;;;20.17;41.50;101692.41;5004224;28;20493;-77
2023/10/02 00:38:10;;;;;;;0.63;0.63;;;;;;;20.16;41.67;101693.41;4989653;28;20781;-78
2023/10/02 00:40:39;;;;;;;0.20;0.20;;;;;;;20.18;41.49;101696.72;4989778;28;20386;-76
2023/10/02 00:45:58;;;;;;;0.30;0.30;;;;;;;20.03;41.57;101711.25;4989996;28;20460;-78
2023/10/02 00:48:25;;;;;;;0.20;0.20;;;;;;;20.00;41.74;101705.44;4989563;28;20393;-80
2023/10/02 00:50:58;;;;;;;0.70;0.70;;;;;;;19.94;41.74;101700.91;4990091;28;20385;-78
2023/10/02 00:53:46;;;;;;;0.20;0.20;;;;;;;19.80;41.81;101689.31;4989912;28;20409;-78
2023/10/02 00:56:22;;;;;;;0.30;0.30;;;;;;;19.79;41.75;101701.09;5003833;28;21336;-78
2023/10/02 00:59:14;;;;;;;0.32;0.32;;;;;;;19.95;41.72;101706.09;4989098;28;20402;-79
2023/10/02 01:01:44;;;;;;;0.20;0.20;;;;;;;19.95;41.48;101702.53;4988237;28;20959;-79
2023/10/02 01:04:28;;;;;;;0.45;0.45;;;;;;;19.91;41.69;101702.13;4990860;28;20931;-79
2023/10/02 01:09:33;;;;;;;0.33;0.33;;;;;;;19.95;41.59;101706.09;5004624;28;20401;-77
2023/10/02 01:12:00;;;;;;;0.30;0.25;;;;;;;19.90;41.51;101702.34;4989664;28;20388;-76
2023/10/02 01:17:26;;;;;;;0.52;0.52;;;;;;;19.94;41.64;101709.78;4976140;28;20406;-80
2023/10/02 01:19:55;;;;;;;0.43;0.43;;;;;;;19.95;41.67;101716.00;5004053;28;20401;-77
2023/10/02 01:22:35;;;;;;;0.17;0.17;;;;;;;19.91;41.77;101706.69;4989668;28;20393;-77
2023/10/02 01:25:47;;;;;;;0.20;0.20;;;;;;;19.91;41.94;101710.19;4972520;28;20489;-76
2023/10/02 01:27:56;;;;;;;0.30;0.30;;;;;;;20.01;41.95;101715.19;4985824;28;20484;-77
2023/10/02 01:30:29;;;;;;;0.35;0.35;;;;;;;19.88;41.95;101704.41;4989367;28;20389;-74
2023/10/02 01:35:46;;;;;;;0.20;0.20;;;;;;;19.72;42.22;101689.50;4989242;28;20380;-77
2023/10/02 01:38:14;;;;;;;0.28;0.28;;;;;;;19.52;42.46;101686.78;4989088;28;20413;-76
2023/10/02 01:41:06;;;;;;;0.20;0.20;;;;;;;19.43;42.39;101688.88;4988873;28;20404;-78
2023/10/02 01:43:44;;;;;;;0.70;0.70;;;;;;;19.32;42.54;101686.75;4987280;28;20413;-77
2023/10/02 01:46:17;;;;;;;0.30;0.30;;;;;;;19.35;42.40;101683.66;4970928;28;20830;-79
2023/10/02 01:48:44;;;;;;;0.30;0.30;;;;;;;19.28;42.47;101683.66;4988618;28;20394;-79
2023/10/02 01:51:15;;;;;;;0.25;0.25;;;;;;;19.19;42.65;101684.88;4970631;28;20943;-79
2023/10/02 01:53:59;;;;;;;0.20;0.20;;;;;;;19.14;42.51;101681.97;4987259;28;20456;-78
2023/10/02 01:56:30;;;;;;;0.30;0.30;;;;;;;19.06;42.75;101674.94;4986434;28;20405;-79
2023/10/02 01:59:09;;;;;;;0.30;0.30;;;;;;;19.04;42.63;101668.94;4987017;28;20842;-75
2023/10/02 02:02:12;;;;;;;0.20;0.20;;;;;;;18.99;42.72;101672.22;4969734;28;20404;-78
2023/10/02 02:04:28;;;;;;;0.30;0.30;;;;;;;19.06;42.57;101670.38;4986660;28;20401;-78
2023/10/02 02:07:00;;;;;;;0.10;0.10;;;;;;;19.02;42.64;101674.50;4988617;28;20880;-74
2023/10/02 02:09:37;;;;;;;0.23;0.23;;;;;;;19.10;42.72;101674.34;4988388;28;20417;-78
2023/10/02 02:12:10;;;;;;;0.20;0.20;;;;;;;19.06;42.58;101670.38;4965704;28;20404;-79
2023/10/02 02:14:53;;;;;;;0.20;0.20;;;;;;;19.14;42.60;101672.06;4966163;28;20416;-77
2023/10/02 02:17:26;;;;;;;0.60;0.60;;;;;;;19.24;42.50;101660.91;4966401;28;20392;-76
2023/10/02 02:19:56;;;;;;;0.68;0.38;;;;;;;19.23;42.20;101676.22;4950794;28;20409;-76
2023/10/02 02:22:31;;;;;;;0.30;0.30;;;;;;;19.21;42.12;101680.97;4966698;28;20407;-77
2023/10/02 02:25:02;;;;;;;0.30;0.30;;;;;;;19.36;42.27;101685.34;4966526;28;20434;-75
2023/10/02 02:27:27;;;;;;;0.10;0.10;;;;;;;19.40;41.79;101690.09;4949915;28;20766;-76
2023/10/02 02:30:19;;;;;;;0.30;0.30;;;;;;;19.44;41.81;101687.81;4965947;28;20965;-76
2023/10/02 02:32:52;;;;;;;0.50;0.50;;;;;;;19.41;41.83;101682.84;4966342;28;20871;-79
2023/10/02 02:35:21;;;;;;;0.23;0.23;;;;;;;19.43;41.75;101688.88;4966722;28;20400;-77
2023/10/02 02:37:49;;;;;;;0.20;0.20;;;;;;;19.27;41.70;101695.44;4966771;28;20883;-79
2023/10/02 02:40:32;;;;;;;0.55;0.55;;;;;;;19.28;41.79;101689.03;4966478;28;20494;-77
2023/10/02 02:42:58;;;;;;;0.40;0.40;;;;;;;19.27;41.75;101692.75;4976350;28;20743;-78
2023/10/02 02:45:31;;;;;;;0.22;0.22;;;;;;;19.27;41.72;101688.22;5003321;28;20386;-81
2023/10/02 02:48:10;;;;;;;0.50;0.50;;;;;;;19.31;41.75;101699.38;4985346;28;20902;-79
2023/10/02 02:50:41;;;;;;;0.90;0.60;;;;;;;19.19;41.81;101704.50;4985611;28;20405;-77
2023/10/02 02:56:28;;;;;;;0.20;0.20;;;;;;;19.19;41.75;101698.31;4985150;28;20960;-77
2023/10/02 02:59:02;;;;;;;0.20;0.20;;;;;;;19.21;41.71;101699.78;4984889;28;20390;-78
2023/10/02 03:01:29;;;;;;;0.32;0.32;;;;;;;19.16;42.07;101696.03;4985581;28;20402;-79
2023/10/02 03:03:56;;;;;;;0.32;0.25;;;;;;;19.13;42.00;101701.81;4985493;28;20389;-76
2023/10/02 03:06:27;;;;;;;0.20;0.20;;;;;;;19.06;42.07;101701.81;4989766;28;20393;-78
2023/10/02 03:08:54;;;;;;;0.20;0.20;;;;;;;19.03;42.07;101694.13;4989381;28;20402;-78
2023/10/02 03:11:22;;;;;;;0.30;0.30;;;;;;;19.02;42.15;101690.63;4989802;28;20420;-78
2023/10/02 03:14:11;;;;;;;0.20;0.20;;;;;;;18.89;42.35;101682.53;4989741;28;20500;-79
2023/10/02 03:16:45;;;;;;;0.20;0.20;;;;;;;18.87;42.40;101692.63;4989243;28;20529;-78
2023/10/02 03:19:16;;;;;;;0.20;0.20;;;;;;;18.93;42.25;101685.66;4982302;28;20404;-78
2023/10/02 03:21:47;;;;;;;0.20;0.20;;;;;;;18.87;42.16;101692.63;4991598;28;20405;-78
2023/10/02 03:24:19;;;;;;;0.20;0.20;;;;;;;18.96;42.20;101701.34;4990635;28;20468;-79
2023/10/02 03:26:52;;;;;;;0.20;0.20;;;;;;;18.91;42.19;101708.16;5005830;28;20405;-81
2023/10/02 03:29:22;;;;;;;0.20;0.20;;;;;;;18.84;42.07;101699.25;4994624;28;20774;-80
2023/10/02 03:31:51;;;;;;;0.10;0.10;;;;;;;18.84;42.14;101703.78;4990374;28;20400;-81
2023/10/02 03:34:32;;;;;;;0.10;0.10;;;;;;;18.91;42.18;101704.66;4989678;28;20853;-81
2023/10/02 03:40:02;;;;;;;0.40;0.40;;;;;;;18.79;42.30;101717.78;4989746;28;20402;-80
2023/10/02 03:42:41;;;;;;;0.30;0.30;;;;;;;18.71;42.10;101710.72;4988861;28;20541;-79
2023/10/02 03:45:07;;;;;;;0.50;0.50;;;;;;;18.65;42.35;101716.06;4991189;28;20393;-80
2023/10/02 03:47:37;;;;;;;0.40;0.30;;;;;;;18.54;42.44;101720.97;4991891;28;20403;-81
2023/10/02 03:50:12;;;;;;;0.10;0.10;;;;;;;18.48;42.75;101723.63;4991656;28;20431;-80
2023/10/02 03:52:41;;;;;;;0.10;0.10;;;;;;;18.35;42.72;101716.31;4988896;28;20891;-81
2023/10/02 03:55:19;;;;;;;0.40;0.40;;;;;;;18.30;42.72;101722.28;4991919;28;20416;-79
2023/10/02 03:57:49;;;;;;;0.20;0.20;;;;;;;18.23;43.08;101732.13;4991831;28;20414;-80
2023/10/02 04:00:19;;;;;;;0.38;0.38;;;;;;;18.23;42.94;101732.13;4990823;28;20497;-81
2023/10/02 04:02:48;;;;;;;0.25;0.25;;;;;;;18.13;43.20;101743.22;4992147;28;20805;-79
2023/10/02 04:05:32;;;;;;;0.25;0.25;;;;;;;18.01;43.40;101735.91;4989451;28;20393;-76
2023/10/02 04:11:03;;;;;;;0.27;0.27;;;;;;;18.11;43.32;101741.75;5006462;28;20825;-79
2023/10/02 04:13:32;;;;;;;0.32;0.32;;;;;;;17.95;43.56;101737.47;4992123;28;20904;-78
2023/10/02 04:16:43;;;;;;;0.10;0.10;;;;;;;18.04;43.50;101739.03;4990424;28;20385;-76
2023/10/02 04:18:49;;;;;;;0.30;0.30;;;;;;;17.99;43.73;101738.78;5008147;28;20433;-74
2023/10/02 04:21:22;;;;;;;0.30;0.30;;;;;;;18.02;43.49;101738.38;4992185;28;20437;-77
2023/10/02 04:23:56;;;;;;;0.10;0.10;;;;;;;18.12;43.40;101741.56;4973623;28;20398;-81
2023/10/02 04:26:28;;;;;;;0.38;0.38;;;;;;;18.18;43.25;101741.81;4973589;28;20396;-78
2023/10/02 04:30:09;;;;;;;1.00;0.20;;;;;;;18.11;43.55;101747.09;4973980;28;20406;-74
2023/10/02 04:32:04;;;;;;;0.30;0.30;;;;;;;18.20;43.39;101748.63;4986021;28;20397;-79
2023/10/02 04:34:36;;;;;;;0.10;0.10;;;;;;;18.27;43.26;101749.50;4989789;28;20429;-78
2023/10/02 04:37:19;;;;;;;0.20;0.20;;;;;;;18.25;43.29;101766.84;4975004;28;20825;-78
2023/10/02 04:39:53;;;;;;;0.60;0.60;;;;;;;18.20;43.45;101769.25;4975713;28;20460;-78
2023/10/02 04:42:21;;;;;;;0.28;0.28;;;;;;;18.18;43.34;101765.94;4974164;28;20402;-78
2023/10/02 04:44:56;;;;;;;0.20;0.20;;;;;;;18.21;43.39;101769.06;4989184;28;20394;-75
2023/10/02 04:47:26;;;;;;;0.52;0.52;;;;;;;18.22;43.34;101764.53;4973024;28;20962;-78
2023/10/02 04:53:04;;;;;;;0.30;0.30;;;;;;;18.15;43.65;101778.75;4974855;28;20394;-76
2023/10/02 04:55:43;;;;;;;0.20;0.20;;;;;;;18.14;43.94;101777.06;4991319;28;20393;-78
2023/10/02 04:58:17;;;;;;;0.50;0.50;;;;;;;18.19;43.73;101776.50;4972215;28;20406;-78
2023/10/02 05:03:34;;;;;;;0.10;0.10;;;;;;;18.15;43.98;101785.97;4971189;28;20487;-77
2023/10/02 05:06:05;;;;;;;0.10;0.10;;;;;;;18.28;43.77;101790.59;4971181;28;20895;-77
2023/10/02 05:11:26;;;;;;;0.10;0.10;;;;;;;18.33;43.68;101786.31;4972195;28;20762;-79
2023/10/02 05:16:34;;;;;;;0.40;0.40;;;;;;;18.37;43.58;101793.97;4970576;28;20418;-77
2023/10/02 05:19:05;;;;;;;0.20;0.20;;;;;;;18.39;43.69;101808.84;4966901;28;20395;-77
2023/10/02 05:21:50;;;;;;;0.50;0.50;;;;;;;18.39;43.67;101806.16;4950821;28;20466;-78
2023/10/02 05:24:23;;;;;;;0.95;0.47;;;;;;;18.46;43.90;101811.59;4967795;28;20400;-77
2023/10/02 05:26:50;;;;;;;0.27;0.27;;;;;;;18.55;43.46;101813.09;4967797;28;20450;-78
2023/10/02 05:29:17;;;;;;;0.70;0.70;;;;;;;18.62;43.42;101810.44;4968677;28;20387;-79
2023/10/02 05:31:45;;;;;;;0.70;0.50;;;;;;;18.73;43.21;101821.47;4968307;28;20391;-78
2023/10/02 05:34:24;;;;;;;0.98;0.40;;;;;;;18.70;43.09;101815.69;4949555;29;20408;-79
2023/10/02 05:37:11;;;;;;;0.32;0.32;;;;;;;18.77;43.15;101829.97;4949848;29;20404;-78
2023/10/02 05:39:41;;;;;;;0.10;0.10;;;;;;;18.79;42.89;101835.97;4920397;29;20492;-77
2023/10/02 05:42:14;;;;;;;0.10;0.10;;;;;;;18.88;42.85;101837.50;4949814;29;20540;-78
2023/10/02 05:44:47;;;;;;;0.15;0.15;;;;;;;18.97;42.46;101840.06;4918098;29;20393;-77
2023/10/02 05:47:16;;;;;;;0.22;0.22;;;;;;;19.05;42.30;101851.47;4950527;29;20426;-78
2023/10/02 05:49:49;;;;;;;0.30;0.30;;;;;;;19.13;42.13;101850.47;4958076;28;20405;-79
2023/10/02 05:52:18;;;;;;;0.25;0.25;;;;;;;19.08;41.93;101852.91;4953174;28;20743;-78
2023/10/02 05:54:53;;;;;;;0.40;0.13;;;;;;;19.13;41.92;101857.72;4969966;28;20427;-80
2023/10/02 05:57:20;;;;;;;0.40;0.40;;;;;;;19.20;41.59;101859.41;4969403;28;20422;-80
2023/10/02 05:59:55;;;;;;;0.30;0.30;;;;;;;19.27;41.62;101862.13;4969654;28;20515;-79
2023/10/02 06:02:22;;;;;;;0.22;0.22;;;;;;;19.43;41.42;101863.66;4969459;28;20449;-79
2023/10/02 06:04:52;;;;;;;0.13;0.13;;;;;;;19.31;41.49;101866.06;4969468;28;20926;-79
2023/10/02 06:07:43;;;;;;;0.10;0.10;;;;;;;19.46;41.25;101865.91;4953037;28;20415;-80
2023/10/02 06:10:44;;;;;;;0.20;0.20;;;;;;;19.28;40.99;101867.31;4969331;28;20387;-81
2023/10/02 06:13:05;;;;;;;0.10;0.10;;;;;;;19.18;40.88;101874.91;4967406;28;20404;-80
2023/10/02 06:15:49;;;;;;;0.30;0.30;;;;;;;19.29;40.32;101870.81;4971530;28;20463;-79
2023/10/02 06:18:26;;;;;;;0.05;0.05;;;;;;;19.42;40.22;101881.63;4970675;28;20413;-81
2023/10/02 06:21:00;;;;;;;0.10;0.10;;;;;;;19.49;40.14;101884.34;4986014;28;20410;-80
2023/10/02 06:23:30;;;;;;;0.30;0.30;;;;;;;19.45;40.20;101877.72;4970661;28;21262;-80
2023/10/02 06:25:58;;;;;;;1.10;0.65;;;;;;;19.40;39.82;101886.38;4970632;28;20392;-80
2023/10/02 06:28:27;;;;;;;0.20;0.20;;;;;;;19.31;40.12;101881.38;4970768;28;20399;-80
2023/10/02 06:30:56;;;;;;;0.30;0.20;;;;;;;19.25;39.98;101889.19;4971683;28;20403;-79
2023/10/02 06:33:39;;;;;;;0.28;0.28;;;;;;;19.43;39.98;101896.75;4995651;28;20455;-79
2023/10/02 06:36:09;;;;;;;0.13;0.13;;;;;;;19.32;39.76;101894.63;4984880;28;20442;-79
2023/10/02 06:38:36;;;;;;;0.20;0.20;;;;;;;19.34;39.75;101894.41;4970244;28;20398;-79
2023/10/02 06:41:12;;;;;;;0.10;0.10;;;;;;;19.53;39.75;101911.66;4974948;28;20399;-77
2023/10/02 06:43:40;;;;;;;0.15;0.15;;;;;;;19.41;39.22;101906.00;4974076;28;20482;-83
2023/10/02 06:46:13;;;;;;;0.13;0.13;;;;;;;19.44;39.35;101909.13;4974820;28;20449;-76
2023/10/02 06:48:43;;;;;;;2.50;0.40;;;;;;;19.52;39.50;101908.16;4989412;28;21227;-81
2023/10/02 06:51:16;;;;;;;0.20;0.20;;;;;;;19.42;39.19;101916.56;4974876;28;20383;-80
2023/10/02 06:53:43;;;;;;;0.30;0.30;;;;;;;19.59;39.21;101913.53;4989804;28;20422;-78
2023/10/02 06:56:13;;;;;;;0.10;0.10;;;;;;;19.64;38.62;101916.47;4979184;28;20416;-78
2023/10/02 06:58:52;;;;;;;0.30;0.25;;;;;;;19.65;38.31;101913.56;4993116;28;20450;-78
2023/10/02 07:01:27;;;;;;;0.20;0.20;;;;;;;19.83;37.98;101915.75;4992999;28;20401;-78
2023/10/02 07:03:56;;;;;;;0.55;0.50;;;;;;;20.02;37.90;101907.91;5008299;28;20393;-79
2023/10/02 07:06:26;;;;;;;0.20;0.20;;;;;;;20.22;37.48;101916.88;4992910;28;20394;-79
2023/10/02 07:11:42;;;;;;;0.40;0.40;;;;;;;20.25;37.02;101923.72;4993141;28;20455;-80
2023/10/02 07:14:10;;;;;;;0.10;0.10;;;;;;;19.98;37.38;101930.91;5008797;28;20422;-79
2023/10/02 07:16:37;;;;;;;0.35;0.30;;;;;;;20.09;37.25;101927.59;5008537;28;20386;-80
2023/10/02 07:19:04;;;;;;;0.20;0.20;;;;;;;20.34;37.03;101932.44;5008810;28;20398;-79
2023/10/02 07:21:35;;;;;;;0.13;0.13;;;;;;;20.19;36.72;101927.22;4959695;28;20393;-80
2023/10/02 07:24:27;;;;;;;0.20;0.20;;;;;;;20.35;36.64;101924.16;4975812;28;20389;-80
2023/10/02 07:26:56;;;;;;;0.20;0.20;;;;;;;20.58;36.74;101933.69;5005301;28;20402;-81
2023/10/02 07:29:37;;;;;;;0.20;0.20;;;;;;;20.81;36.37;101928.75;4994209;28;20397;-82
2023/10/02 07:32:04;;;;;;;0.10;0.10;;;;;;;21.03;36.51;101938.47;4991471;28;20386;-77
2023/10/02 07:34:36;;;;;;;0.10;0.10;;;;;;;20.79;36.97;101938.88;5007662;28;20425;-81
2023/10/02 07:37:07;;;;;;;0.30;0.30;;;;;;;20.91;37.15;101936.41;4991958;28;20485;-79
2023/10/02 07:39:35;;;;;;;0.20;0.20;;;;;;;20.92;36.79;101948.84;4975413;28;20411;-84
2023/10/02 07:42:10;;;;;;;0.10;0.10;;;;;;;20.79;37.01;101943.47;4992235;28;20390;-82
2023/10/02 07:44:53;;;;;;;0.15;0.15;;;;;;;21.06;37.22;101951.53;4978700;28;20793;-81
2023/10/02 07:47:21;;;;;;;0.35;0.35;;;;;;;21.32;36.70;101950.63;5006890;28;20390;-80
2023/10/02 07:49:55;;;;;;;0.52;0.50;;;;;;;21.45;36.42;101957.88;4974426;28;20454;-81
2023/10/02 07:52:29;;;;;;;0.30;0.30;;;;;;;21.08;36.98;101950.25;4990667;28;20912;-81
2023/10/02 07:54:59;;;;;;;0.85;0.50;;;;;;;21.22;36.83;101953.78;4990705;28;20903;-81
2023/10/02 07:57:32;;;;;;;0.20;0.20;;;;;;;21.41;36.91;101952.09;4992888;28;20499;-81
2023/10/02 08:03:02;;;;;;;0.40;0.30;;;;;;;21.63;37.04;101965.31;5006648;28;20405;-80
2023/10/02 08:05:28;;;;;;;0.10;0.10;;;;;;;21.60;36.67;101969.25;4992518;28;20397;-80
2023/10/02 08:08:08;;;;;;;0.10;0.10;;;;;;;21.66;36.70;101978.38;4992606;28;20789;-81
2023/10/02 08:10:52;;;;;;;0.75;0.15;;;;;;;21.73;36.68;101971.94;4991882;28;20493;-81
2023/10/02 08:13:48;;;;;;;0.28;0.28;;;;;;;21.48;36.77;101979.91;4993478;28;20412;-80
2023/10/02 08:16:17;;;;;;;0.20;0.20;;;;;;;21.29;37.37;101975.34;4991584;28;20916;-80
2023/10/02 08:18:57;;;;;;;0.20;0.20;;;;;;;21.52;37.04;101970.34;4990358;28;20841;-79
2023/10/02 08:21:35;;;;;;;0.10;0.10;;;;;;;21.87;36.52;101974.56;4992640;28;20770;-80
2023/10/02 08:24:08;;;;;;;0.17;0.17;;;;;;;22.12;36.39;101972.75;4992931;28;20405;-81
2023/10/02 08:26:41;;;;;;;0.20;0.20;;;;;;;22.03;36.37;101987.56;5023701;28;20402;-82
2023/10/02 08:29:27;;;;;;;0.17;0.17;;;;;;;21.93;36.34;101979.94;4993238;28;20390;-81
2023/10/02 08:31:55;;;;;;;0.70;0.30;;;;;;;22.10;36.67;101982.13;4993482;28;20386;-82
2023/10/02 08:34:26;;;;;;;0.13;0.13;;;;;;;22.24;36.27;101982.91;5006486;28;20414;-84
2023/10/02 08:37:05;;;;;;;0.10;0.10;;;;;;;22.08;36.71;101986.94;4991624;28;20390;-82
2023/10/02 08:39:41;;;;;;;0.20;0.20;;;;;;;22.24;36.83;101978.31;5006027;28;20481;-81
2023/10/02 08:42:09;;;;;;;0.20;0.20;;;;;;;22.27;36.66;101985.19;5022260;28;20432;-82
2023/10/02 08:44:45;;;;;;;0.10;0.10;;;;;;;21.85;37.27;101984.75;4992158;28;20393;-82
2023/10/02 08:47:12;;;;;;;0.30;0.30;;;;;;;22.00;37.19;101989.88;4992533;28;20381;-82
2023/10/02 08:49:41;;;;;;;0.20;0.20;;;;;;;22.09;37.09;101984.00;5006902;28;20390;-82
2023/10/02 08:52:13;;;;;;;0.20;0.20;;;;;;;22.27;37.30;101986.03;4992245;28;20390;-82
2023/10/02 08:54:45;;;;;;;0.10;0.10;;;;;;;22.30;37.20;101988.28;5023305;28;20513;-82
2023/10/02 08:57:12;;;;;;;0.43;0.40;;;;;;;22.31;37.56;101994.53;5023194;28;20413;-81
2023/10/02 08:59:38;;;;;;;0.20;0.20;;;;;;;22.28;37.44;101994.94;4991232;28;20746;-80
2023/10/02 09:02:15;;;;;;;0.20;0.20;;;;;;;22.19;37.59;101988.94;4992325;28;20386;-81
2023/10/02 09:05:09;;;;;;;0.10;0.10;;;;;;;22.41;37.28;101988.63;5007487;28;20544;-80
2023/10/02 09:10:25;;;;;;;0.20;0.20;;;;;;;22.29;37.57;101988.47;4991980;28;20456;-82
2023/10/02 09:13:19;;;;;;;0.10;0.10;;;;;;;22.55;37.41;101983.97;5006502;28;20839;-80
2023/10/02 09:15:48;;;;;;;0.10;0.10;;;;;;;22.58;37.69;101984.38;4990530;28;20905;-82
2023/10/02 09:18:34;;;;;;;0.20;0.20;;;;;;;23.00;36.77;101990.03;4990880;28;20414;-81
2023/10/02 09:21:16;;;;;;;0.20;0.20;;;;;;;23.04;37.13;101985.88;4990549;28;20412;-82
2023/10/02 09:23:53;;;;;;;0.20;0.20;;;;;;;22.83;37.49;101987.06;5020230;28;20461;-82
2023/10/02 09:26:23;;;;;;;0.40;0.40;;;;;;;22.88;37.61;101981.81;4992660;28;20408;-81
2023/10/02 09:28:58;;;;;;;0.10;0.10;;;;;;;23.09;37.34;101980.63;4991463;28;20560;-82
2023/10/02 09:31:42;;;;;;;0.10;0.10;;;;;;;23.50;36.93;101980.19;4991455;28;20475;-83
2023/10/02 09:34:16;;;;;;;0.35;0.35;;;;;;;23.54;36.77;101990.34;5022936;28;20414;-83
2023/10/02 09:36:52;;;;;;;0.30;0.30;;;;;;;23.57;36.96;101987.22;5006223;28;20397;-82
2023/10/02 09:39:31;;;;;;;0.15;0.15;;;;;;;23.53;37.32;101985.16;5021093;28;20421;-80
2023/10/02 09:42:09;;;;;;;0.50;0.50;;;;;;;23.76;36.88;101981.78;5005393;28;20940;-82
2023/10/02 09:44:47;;;;;;;0.20;0.20;;;;;;;23.64;37.04;101989.81;4989791;28;20401;-83
2023/10/02 09:47:13;;;;;;;0.20;0.20;;;;;;;23.54;37.37;101990.34;4988938;28;20444;-82
2023/10/02 09:49:51;;;;;;;0.20;0.20;;;;;;;23.55;37.16;102002.00;5005849;28;20402;-82
2023/10/02 09:52:33;;;;;;;0.20;0.20;;;;;;;23.59;37.35;102006.75;5007112;28;20481;-81
2023/10/02 09:55:23;;;;;;;0.23;0.23;;;;;;;23.60;37.38;101997.56;4989161;28;20801;-85
2023/10/02 09:57:54;;;;;;;0.50;0.50;;;;;;;23.73;37.47;101982.22;5003555;28;20901;-81
2023/10/02 10:00:37;;;;;;;0.28;0.20;;;;;;;23.76;37.30;101993.41;5004903;28;20481;-83
2023/10/02 10:03:24;;;;;;;0.30;0.30;;;;;;;23.79;37.18;101984.84;4989654;28;20401;-81
2023/10/02 10:06:16;;;;;;;0.32;0.32;;;;;;;23.78;37.08;101994.03;5005685;28;21064;-82
2023/10/02 10:11:43;;;;;;;0.30;0.30;;;;;;;23.66;37.13;101985.84;4988962;28;20433;-81
2023/10/02 10:14:37;;;;;;;0.28;0.28;;;;;;;23.74;36.81;102000.94;5022130;28;20837;-83
2023/10/02 10:17:49;;;;;;;0.30;0.30;;;;;;;23.69;36.98;101981.84;4990741;28;20398;-83
2023/10/02 10:20:22;;;;;;;0.30;0.30;;;;;;;23.67;36.95;101983.97;5010165;28;20405;-81
2023/10/02 10:22:55;;;;;;;0.20;0.20;;;;;;;23.88;36.29;101965.59;4991209;28;20386;-82
2023/10/02 10:27:54;;;;;;;0.10;0.10;;;;;;;24.16;36.00;101962.31;4991283;28;20781;-82
2023/10/02 10:30:28;;;;;;;0.32;0.32;;;;;;;24.23;35.95;101968.47;4989944;28;20820;-82
2023/10/02 10:35:48;;;;;;;0.20;0.20;;;;;;;23.93;36.52;101963.03;4992086;28;21002;-81
2023/10/02 10:38:34;;;;;;;0.10;0.10;;;;;;;23.99;36.25;101954.00;5006660;28;20393;-82
2023/10/02 10:41:31;;;;;;;0.20;0.20;;;;;;;23.96;36.37;101954.47;4991399;28;20452;-82
2023/10/02 10:43:59;;;;;;;0.30;0.30;;;;;;;23.97;36.30;101953.41;4991949;28;20420;-81
2023/10/02 10:46:27;;;;;;;0.10;0.10;;;;;;;24.16;35.72;101946.88;4991862;28;20469;-79
2023/10/02 10:49:15;;;;;;;0.20;0.20;;;;;;;24.27;35.51;101942.53;4990557;28;20390;-82
2023/10/02 10:51:42;;;;;;;0.40;0.30;;;;;;;24.58;35.33;101935.22;5022718;28;20387;-83
2023/10/02 10:54:22;;;;;;;0.20;0.20;;;;;;;24.61;35.25;101932.03;5022949;28;20510;-81
2023/10/02 10:57:22;;;;;;;0.20;0.20;;;;;;;24.64;35.09;101934.28;4991403;28;20413;-85
2023/10/02 11:00:24;;;;;;;0.47;0.47;;;;;;;23.94;35.41;101933.03;4994808;28;20393;-82
2023/10/02 11:03:08;;;;;;;0.20;0.20;;;;;;;23.94;35.89;101935.72;5019212;28;20448;-83
2023/10/02 11:05:37;;;;;;;0.15;0.15;;;;;;;24.12;35.45;101932.16;4992603;28;20412;-82
2023/10/02 11:08:26;;;;;;;0.10;0.10;;;;;;;24.26;35.34;101927.34;4991664;28;20389;-81
2023/10/02 11:11:11;;;;;;;0.40;0.40;;;;;;;24.35;35.20;101923.25;4990497;28;20406;-82
2023/10/02 11:13:54;;;;;;;0.20;0.20;;;;;;;24.43;35.18;101913.94;4991248;28;20496;-81
2023/10/02 11:16:37;;;;;;;0.37;0.37;;;;;;;24.49;35.32;101915.75;4989222;28;20386;-81
2023/10/02 11:22:24;;;;;;;0.30;0.30;;;;;;;24.63;34.66;101900.09;4979264;28;20781;-82
2023/10/02 11:24:53;;;;;;;0.15;0.15;;;;;;;24.39;34.45;101907.34;4991155;28;21186;-81
2023/10/02 11:27:23;;;;;;;0.30;0.30;;;;;;;24.54;34.42;101896.91;4994575;28;20804;-83
2023/10/02 11:30:01;;;;;;;0.28;0.28;;;;;;;24.68;34.00;101902.09;5008758;28;20493;-84
2023/10/02 11:32:45;;;;;;;0.25;0.25;;;;;;;24.75;34.00;101902.81;4992904;28;20389;-81
2023/10/02 11:35:11;;;;;;;0.20;0.20;;;;;;;24.76;33.90;101899.88;4994105;28;20405;-81
2023/10/02 11:37:48;;;;;;;0.50;0.50;;;;;;;24.71;34.02;101894.31;4994489;28;20705;-82
2023/10/02 11:40:14;;;;;;;0.30;0.30;;;;;;;24.71;33.61;101890.78;5011292;28;20430;-83
2023/10/02 11:42:40;;;;;;;0.50;0.50;;;;;;;24.77;33.65;101897.97;5025992;28;20404;-82
2023/10/02 11:45:08;;;;;;;0.43;0.40;;;;;;;24.69;34.02;101884.78;5010696;28;20504;-82
2023/10/02 11:47:34;;;;;;;0.17;0.17;;;;;;;24.97;33.69;101881.31;4992890;28;20964;-81
2023/10/02 11:50:00;;;;;;;0.45;0.45;;;;;;;25.03;33.10;101880.38;5025380;28;20459;-83
2023/10/02 11:52:27;;;;;;;0.70;0.50;;;;;;;24.97;33.27;101876.75;4994027;28;20394;-81
2023/10/02 11:54:54;;;;;;;0.20;0.20;;;;;;;24.77;33.34;101885.22;4994447;28;20417;-82
2023/10/02 11:57:20;;;;;;;0.40;0.40;;;;;;;24.63;33.58;101893.84;4994132;28;20735;-83
2023/10/02 11:59:47;;;;;;;0.20;0.20;;;;;;;24.71;33.31;101888.91;4992993;28;20401;-82
2023/10/02 12:02:17;;;;;;;0.20;0.20;;;;;;;24.74;33.17;101876.75;4993736;28;20393;-81
2023/10/02 12:04:46;;;;;;;0.20;0.20;;;;;;;24.83;33.02;101880.78;4992826;28;20884;-82
2023/10/02 12:07:16;;;;;;;0.20;0.20;;;;;;;24.91;32.72;101874.97;5024883;28;20429;-82
2023/10/02 12:09:47;;;;;;;0.25;0.25;;;;;;;25.04;33.00;101879.31;4992018;28;20426;-83
2023/10/02 12:12:18;;;;;;;0.20;0.20;;;;;;;24.91;32.42;101871.44;4996213;28;20964;-81
2023/10/02 12:15:02;;;;;;;0.30;0.30;;;;;;;24.99;32.73;101874.63;4996076;28;20414;-83
2023/10/02 12:17:35;;;;;;;0.55;0.55;;;;;;;25.06;32.50;101876.38;5024660;28;20410;-85
2023/10/02 12:20:22;;;;;;;0.20;0.20;;;;;;;24.90;32.61;101870.63;5005805;28;20793;-82
2023/10/02 12:22:53;;;;;;;0.50;0.50;;;;;;;24.84;32.40;101871.56;4993924;28;20885;-82
2023/10/02 12:25:25;;;;;;;0.40;0.40;;;;;;;24.77;32.00;101873.56;4994025;28;20464;-84
2023/10/02 12:27:52;;;;;;;0.30;0.30;;;;;;;24.74;31.42;101865.91;4992086;28;20402;-83
2023/10/02 12:30:17;;;;;;;0.60;0.60;;;;;;;24.91;31.83;101861.41;4993188;28;20390;-83
2023/10/02 12:32:45;;;;;;;0.20;0.20;;;;;;;25.05;31.55;101861.13;4992560;28;20385;-82
2023/10/02 12:35:16;;;;;;;0.57;0.57;;;;;;;25.15;31.34;101859.47;5024736;28;20445;-83
2023/10/02 12:37:42;;;;;;;0.70;0.70;;;;;;;25.30;31.28;101861.72;4990225;28;20492;-82
2023/10/02 12:40:12;;;;;;;0.43;0.43;;;;;;;25.23;31.05;101861.00;4993003;28;20414;-82
2023/10/02 12:42:37;;;;;;;0.60;0.20;;;;;;;25.00;28.87;101857.25;4993078;28;20402;-81
2023/10/02 12:45:07;;;;;;;0.10;0.10;;;;;;;25.01;29.56;101852.66;4991596;28;20398;-81
2023/10/02 12:47:36;;;;;;;0.40;0.40;;;;;;;25.02;28.97;101854.31;4991823;28;20394;-82
2023/10/02 12:50:10;;;;;;;0.30;0.30;;;;;;;25.20;29.17;101845.19;4993319;28;20404;-84